sensor_id;sensor_type;location;lat;lon;timestamp;P1;durP1;ratioP1;P2;durP2;ratioP2
45694;SDS011;31408;45.468;9.124;2023-10-08T00:01:16;38.38;;;21.00;;
45694;SDS011;31408;45.468;9.124;2023-10-08T00:03:42;38.63;;;21.45;;
45694;SDS011;31408;45.468;9.124;2023-10-08T00:06:14;37.88;;;20.45;;
45694;SDS011;31408;45.468;9.124;2023-10-08T00:08:40;36.63;;;21.33;;
45694;SDS011;31408;45.468;9.124;2023-10-08T00:11:05;40.88;;;21.77;;
45694;SDS011;31408;45.468;9.124;2023-10-08T00:13:35;37.63;;;20.38;;
45694;SDS011;31408;45.468;9.124;2023-10-08T00:16:08;36.28;;;20.55;;
45694;SDS011;31408;45.468;9.124;2023-10-08T00:18:40;37.35;;;21.10;;
45694;SDS011;31408;45.468;9.124;2023-10-08T00:21:07;37.97;;;20.13;;
45694;SDS011;31408;45.468;9.124;2023-10-08T00:23:35;40.72;;;21.35;;
45694;SDS011;31408;45.468;9.124;2023-10-08T00:26:00;38.80;;;22.95;;
45694;SDS011;31408;45.468;9.124;2023-10-08T00:28:31;37.60;;;20.83;;
45694;SDS011;31408;45.468;9.124;2023-10-08T00:31:02;40.78;;;22.25;;
45694;SDS011;31408;45.468;9.124;2023-10-08T00:33:40;43.70;;;22.90;;
45694;SDS011;31408;45.468;9.124;2023-10-08T00:36:09;40.13;;;21.98;;
45694;SDS011;31408;45.468;9.124;2023-10-08T00:38:47;39.45;;;21.98;;
45694;SDS011;31408;45.468;9.124;2023-10-08T00:41:16;35.10;;;21.67;;
45694;SDS011;31408;45.468;9.124;2023-10-08T00:43:42;44.95;;;23.63;;
45694;SDS011;31408;45.468;9.124;2023-10-08T00:46:10;45.03;;;23.02;;
45694;SDS011;31408;45.468;9.124;2023-10-08T00:48:54;39.03;;;21.30;;
45694;SDS011;31408;45.468;9.124;2023-10-08T00:51:26;41.20;;;23.55;;
45694;SDS011;31408;45.468;9.124;2023-10-08T00:53:56;42.67;;;23.15;;
45694;SDS011;31408;45.468;9.124;2023-10-08T00:56:28;39.13;;;21.90;;
45694;SDS011;31408;45.468;9.124;2023-10-08T00:59:10;42.53;;;24.02;;
45694;SDS011;31408;45.468;9.124;2023-10-08T01:01:46;43.45;;;25.60;;
45694;SDS011;31408;45.468;9.124;2023-10-08T01:04:17;41.30;;;24.30;;
45694;SDS011;31408;45.468;9.124;2023-10-08T01:06:42;41.20;;;22.90;;
45694;SDS011;31408;45.468;9.124;2023-10-08T01:09:08;42.97;;;23.38;;
45694;SDS011;31408;45.468;9.124;2023-10-08T01:11:43;41.15;;;22.40;;
45694;SDS011;31408;45.468;9.124;2023-10-08T01:14:15;40.63;;;23.98;;
45694;SDS011;31408;45.468;9.124;2023-10-08T01:16:40;42.17;;;25.35;;
45694;SDS011;31408;45.468;9.124;2023-10-08T01:19:11;42.78;;;23.42;;
45694;SDS011;31408;45.468;9.124;2023-10-08T01:21:41;39.20;;;24.60;;
45694;SDS011;31408;45.468;9.124;2023-10-08T01:24:07;45.00;;;24.67;;
45694;SDS011;31408;45.468;9.124;2023-10-08T01:26:33;43.35;;;24.40;;
45694;SDS011;31408;45.468;9.124;2023-10-08T01:28:59;44.13;;;25.45;;
45694;SDS011;31408;45.468;9.124;2023-10-08T01:31:32;46.35;;;24.58;;
45694;SDS011;31408;45.468;9.124;2023-10-08T01:33:57;42.30;;;22.75;;
45694;SDS011;31408;45.468;9.124;2023-10-08T01:36:26;40.67;;;22.77;;
45694;SDS011;31408;45.468;9.124;2023-10-08T01:38:51;42.35;;;24.13;;
45694;SDS011;31408;45.468;9.124;2023-10-08T01:41:20;43.75;;;24.27;;
45694;SDS011;31408;45.468;9.124;2023-10-08T01:43:54;45.20;;;24.40;;
45694;SDS011;31408;45.468;9.124;2023-10-08T01:46:19;42.65;;;22.48;;
45694;SDS011;31408;45.468;9.124;2023-10-08T01:48:47;42.55;;;23.92;;
45694;SDS011;31408;45.468;9.124;2023-10-08T01:51:14;45.08;;;24.48;;
45694;SDS011;31408;45.468;9.124;2023-10-08T01:53:50;42.08;;;23.25;;
45694;SDS011;31408;45.468;9.124;2023-10-08T01:56:16;43.38;;;24.52;;
45694;SDS011;31408;45.468;9.124;2023-10-08T01:58:43;43.78;;;25.25;;
45694;SDS011;31408;45.468;9.124;2023-10-08T02:01:08;47.53;;;26.13;;
45694;SDS011;31408;45.468;9.124;2023-10-08T02:03:37;42.70;;;24.58;;
45694;SDS011;31408;45.468;9.124;2023-10-08T02:06:02;51.05;;;26.63;;
45694;SDS011;31408;45.468;9.124;2023-10-08T02:08:31;38.85;;;24.00;;
45694;SDS011;31408;45.468;9.124;2023-10-08T02:10:57;45.83;;;24.52;;
45694;SDS011;31408;45.468;9.124;2023-10-08T02:13:22;52.17;;;26.48;;
45694;SDS011;31408;45.468;9.124;2023-10-08T02:15:51;44.72;;;25.58;;
45694;SDS011;31408;45.468;9.124;2023-10-08T02:18:19;44.40;;;23.20;;
45694;SDS011;31408;45.468;9.124;2023-10-08T02:20:45;50.45;;;25.50;;
45694;SDS011;31408;45.468;9.124;2023-10-08T02:23:10;49.60;;;26.75;;
45694;SDS011;31408;45.468;9.124;2023-10-08T02:25:39;46.65;;;26.70;;
45694;SDS011;31408;45.468;9.124;2023-10-08T02:28:06;49.03;;;27.75;;
45694;SDS011;31408;45.468;9.124;2023-10-08T02:30:34;45.83;;;26.95;;
45694;SDS011;31408;45.468;9.124;2023-10-08T02:32:59;48.22;;;26.30;;
45694;SDS011;31408;45.468;9.124;2023-10-08T02:35:24;49.75;;;26.45;;
45694;SDS011;31408;45.468;9.124;2023-10-08T02:37:49;48.08;;;26.38;;
45694;SDS011;31408;45.468;9.124;2023-10-08T02:40:15;49.67;;;27.05;;
45694;SDS011;31408;45.468;9.124;2023-10-08T02:42:53;45.53;;;26.98;;
45694;SDS011;31408;45.468;9.124;2023-10-08T02:45:24;42.33;;;24.08;;
45694;SDS011;31408;45.468;9.124;2023-10-08T02:47:50;47.67;;;25.77;;
45694;SDS011;31408;45.468;9.124;2023-10-08T02:50:18;45.38;;;25.70;;
45694;SDS011;31408;45.468;9.124;2023-10-08T02:52:43;44.28;;;25.52;;
45694;SDS011;31408;45.468;9.124;2023-10-08T02:55:12;47.08;;;26.20;;
45694;SDS011;31408;45.468;9.124;2023-10-08T02:57:50;43.03;;;23.83;;
45694;SDS011;31408;45.468;9.124;2023-10-08T03:00:17;46.53;;;25.10;;
45694;SDS011;31408;45.468;9.124;2023-10-08T03:02:44;45.75;;;25.95;;
45694;SDS011;31408;45.468;9.124;2023-10-08T03:05:11;43.83;;;24.00;;
45694;SDS011;31408;45.468;9.124;2023-10-08T03:07:38;50.08;;;26.10;;
45694;SDS011;31408;45.468;9.124;2023-10-08T03:10:05;48.08;;;25.45;;
45694;SDS011;31408;45.468;9.124;2023-10-08T03:12:32;44.25;;;24.83;;
45694;SDS011;31408;45.468;9.124;2023-10-08T03:14:58;47.15;;;26.00;;
45694;SDS011;31408;45.468;9.124;2023-10-08T03:17:36;42.75;;;24.45;;
45694;SDS011;31408;45.468;9.124;2023-10-08T03:20:16;54.40;;;25.70;;
45694;SDS011;31408;45.468;9.124;2023-10-08T03:23:01;45.03;;;23.48;;
45694;SDS011;31408;45.468;9.124;2023-10-08T03:25:30;46.80;;;25.90;;
45694;SDS011;31408;45.468;9.124;2023-10-08T03:27:55;42.47;;;23.63;;
45694;SDS011;31408;45.468;9.124;2023-10-08T03:30:24;48.50;;;25.13;;
45694;SDS011;31408;45.468;9.124;2023-10-08T03:32:52;46.78;;;24.42;;
45694;SDS011;31408;45.468;9.124;2023-10-08T03:35:21;43.10;;;23.92;;
45694;SDS011;31408;45.468;9.124;2023-10-08T03:37:53;45.50;;;23.38;;
45694;SDS011;31408;45.468;9.124;2023-10-08T03:40:19;45.53;;;22.88;;
45694;SDS011;31408;45.468;9.124;2023-10-08T03:42:57;42.30;;;24.85;;
45694;SDS011;31408;45.468;9.124;2023-10-08T03:45:22;42.85;;;24.13;;
45694;SDS011;31408;45.468;9.124;2023-10-08T03:48:20;43.67;;;22.20;;
45694;SDS011;31408;45.468;9.124;2023-10-08T03:50:47;38.92;;;21.17;;
45694;SDS011;31408;45.468;9.124;2023-10-08T03:53:21;38.72;;;19.63;;
45694;SDS011;31408;45.468;9.124;2023-10-08T03:55:48;40.65;;;21.80;;
45694;SDS011;31408;45.468;9.124;2023-10-08T03:58:16;41.63;;;19.50;;
45694;SDS011;31408;45.468;9.124;2023-10-08T04:00:54;35.85;;;19.48;;
45694;SDS011;31408;45.468;9.124;2023-10-08T04:03:36;42.72;;;21.75;;
45694;SDS011;31408;45.468;9.124;2023-10-08T04:06:23;33.35;;;20.17;;
45694;SDS011;31408;45.468;9.124;2023-10-08T04:08:56;34.75;;;18.33;;
45694;SDS011;31408;45.468;9.124;2023-10-08T04:11:38;36.67;;;20.27;;
45694;SDS011;31408;45.468;9.124;2023-10-08T04:14:30;30.77;;;16.60;;
45694;SDS011;31408;45.468;9.124;2023-10-08T04:16:56;36.55;;;18.85;;
45694;SDS011;31408;45.468;9.124;2023-10-08T04:19:22;36.50;;;18.35;;
45694;SDS011;31408;45.468;9.124;2023-10-08T04:21:54;35.25;;;19.10;;
45694;SDS011;31408;45.468;9.124;2023-10-08T04:24:20;38.72;;;19.92;;
45694;SDS011;31408;45.468;9.124;2023-10-08T04:26:46;38.38;;;18.98;;
45694;SDS011;31408;45.468;9.124;2023-10-08T04:29:11;36.67;;;18.95;;
45694;SDS011;31408;45.468;9.124;2023-10-08T04:31:41;32.70;;;17.95;;
45694;SDS011;31408;45.468;9.124;2023-10-08T04:34:11;30.90;;;17.73;;
45694;SDS011;31408;45.468;9.124;2023-10-08T04:36:47;34.70;;;17.27;;
45694;SDS011;31408;45.468;9.124;2023-10-08T04:39:19;33.30;;;17.60;;
45694;SDS011;31408;45.468;9.124;2023-10-08T04:41:48;37.63;;;17.65;;
45694;SDS011;31408;45.468;9.124;2023-10-08T04:44:18;31.10;;;16.58;;
45694;SDS011;31408;45.468;9.124;2023-10-08T04:46:44;30.42;;;16.02;;
45694;SDS011;31408;45.468;9.124;2023-10-08T04:49:13;30.85;;;14.80;;
45694;SDS011;31408;45.468;9.124;2023-10-08T04:51:56;33.45;;;17.83;;
45694;SDS011;31408;45.468;9.124;2023-10-08T04:54:25;30.42;;;16.50;;
45694;SDS011;31408;45.468;9.124;2023-10-08T04:56:55;26.95;;;15.43;;
45694;SDS011;31408;45.468;9.124;2023-10-08T04:59:23;32.70;;;15.93;;
45694;SDS011;31408;45.468;9.124;2023-10-08T05:01:53;33.15;;;17.27;;
45694;SDS011;31408;45.468;9.124;2023-10-08T05:04:38;26.65;;;14.00;;
45694;SDS011;31408;45.468;9.124;2023-10-08T05:07:23;36.78;;;16.88;;
45694;SDS011;31408;45.468;9.124;2023-10-08T05:09:51;31.33;;;14.88;;
45694;SDS011;31408;45.468;9.124;2023-10-08T05:12:29;28.50;;;14.23;;
45694;SDS011;31408;45.468;9.124;2023-10-08T05:15:03;29.17;;;15.00;;
45694;SDS011;31408;45.468;9.124;2023-10-08T05:17:47;26.80;;;13.63;;
45694;SDS011;31408;45.468;9.124;2023-10-08T05:20:23;25.77;;;14.05;;
45694;SDS011;31408;45.468;9.124;2023-10-08T05:23:10;28.25;;;13.73;;
45694;SDS011;31408;45.468;9.124;2023-10-08T05:25:55;25.15;;;12.27;;
45694;SDS011;31408;45.468;9.124;2023-10-08T05:28:30;28.83;;;14.27;;
45694;SDS011;31408;45.468;9.124;2023-10-08T05:31:15;27.23;;;13.18;;
45694;SDS011;31408;45.468;9.124;2023-10-08T05:33:41;29.90;;;14.40;;
45694;SDS011;31408;45.468;9.124;2023-10-08T05:36:40;28.98;;;13.52;;
45694;SDS011;31408;45.468;9.124;2023-10-08T05:39:18;27.63;;;14.05;;
45694;SDS011;31408;45.468;9.124;2023-10-08T05:41:49;27.02;;;13.50;;
45694;SDS011;31408;45.468;9.124;2023-10-08T05:44:20;27.50;;;12.93;;
45694;SDS011;31408;45.468;9.124;2023-10-08T05:46:45;28.17;;;13.32;;
45694;SDS011;31408;45.468;9.124;2023-10-08T05:49:20;27.38;;;13.35;;
45694;SDS011;31408;45.468;9.124;2023-10-08T05:52:03;27.25;;;12.98;;
45694;SDS011;31408;45.468;9.124;2023-10-08T05:54:28;28.25;;;12.88;;
45694;SDS011;31408;45.468;9.124;2023-10-08T05:57:05;31.48;;;13.50;;
45694;SDS011;31408;45.468;9.124;2023-10-08T06:05:15;24.20;;;10.60;;
45694;SDS011;31408;45.468;9.124;2023-10-08T06:07:52;26.55;;;11.45;;
45694;SDS011;31408;45.468;9.124;2023-10-08T06:10:32;24.25;;;11.02;;
45694;SDS011;31408;45.468;9.124;2023-10-08T06:13:02;23.15;;;10.93;;
45694;SDS011;31408;45.468;9.124;2023-10-08T06:15:46;23.65;;;11.05;;
45694;SDS011;31408;45.468;9.124;2023-10-08T06:18:22;25.00;;;9.48;;
45694;SDS011;31408;45.468;9.124;2023-10-08T06:20:51;25.63;;;10.55;;
45694;SDS011;31408;45.468;9.124;2023-10-08T06:23:20;24.83;;;10.88;;
45694;SDS011;31408;45.468;9.124;2023-10-08T06:25:49;26.55;;;10.40;;
45694;SDS011;31408;45.468;9.124;2023-10-08T06:28:24;18.63;;;9.18;;
45694;SDS011;31408;45.468;9.124;2023-10-08T06:30:51;23.92;;;10.82;;
45694;SDS011;31408;45.468;9.124;2023-10-08T06:33:21;16.90;;;7.85;;
45694;SDS011;31408;45.468;9.124;2023-10-08T06:35:47;17.00;;;8.45;;
45694;SDS011;31408;45.468;9.124;2023-10-08T06:38:27;16.40;;;7.97;;
45694;SDS011;31408;45.468;9.124;2023-10-08T06:41:05;18.95;;;7.32;;
45694;SDS011;31408;45.468;9.124;2023-10-08T06:43:53;17.38;;;7.43;;
45694;SDS011;31408;45.468;9.124;2023-10-08T06:46:28;17.25;;;8.00;;
45694;SDS011;31408;45.468;9.124;2023-10-08T06:48:55;16.55;;;7.18;;
45694;SDS011;31408;45.468;9.124;2023-10-08T06:51:26;15.23;;;6.70;;
45694;SDS011;31408;45.468;9.124;2023-10-08T06:53:51;18.38;;;8.02;;
45694;SDS011;31408;45.468;9.124;2023-10-08T06:56:19;13.45;;;7.03;;
45694;SDS011;31408;45.468;9.124;2023-10-08T06:58:45;17.33;;;7.03;;
45694;SDS011;31408;45.468;9.124;2023-10-08T07:01:14;20.30;;;7.45;;
45694;SDS011;31408;45.468;9.124;2023-10-08T07:03:46;24.08;;;8.68;;
45694;SDS011;31408;45.468;9.124;2023-10-08T07:06:14;17.85;;;7.63;;
45694;SDS011;31408;45.468;9.124;2023-10-08T07:08:50;15.95;;;7.05;;
45694;SDS011;31408;45.468;9.124;2023-10-08T07:11:20;15.88;;;7.72;;
45694;SDS011;31408;45.468;9.124;2023-10-08T07:13:45;15.60;;;7.03;;
45694;SDS011;31408;45.468;9.124;2023-10-08T07:16:11;16.13;;;7.78;;
45694;SDS011;31408;45.468;9.124;2023-10-08T07:18:37;16.23;;;7.28;;
45694;SDS011;31408;45.468;9.124;2023-10-08T07:21:02;18.20;;;6.65;;
45694;SDS011;31408;45.468;9.124;2023-10-08T07:23:37;11.50;;;5.65;;
45694;SDS011;31408;45.468;9.124;2023-10-08T07:26:04;16.70;;;6.18;;
45694;SDS011;31408;45.468;9.124;2023-10-08T07:28:40;13.68;;;5.97;;
45694;SDS011;31408;45.468;9.124;2023-10-08T07:31:16;16.33;;;6.78;;
45694;SDS011;31408;45.468;9.124;2023-10-08T07:33:46;14.52;;;7.10;;
45694;SDS011;31408;45.468;9.124;2023-10-08T07:36:11;10.55;;;4.85;;
45694;SDS011;31408;45.468;9.124;2023-10-08T07:38:43;13.50;;;5.25;;
45694;SDS011;31408;45.468;9.124;2023-10-08T07:41:12;15.05;;;6.13;;
45694;SDS011;31408;45.468;9.124;2023-10-08T07:43:40;11.95;;;4.50;;
45694;SDS011;31408;45.468;9.124;2023-10-08T07:46:07;11.63;;;5.00;;
45694;SDS011;31408;45.468;9.124;2023-10-08T07:48:33;12.00;;;4.70;;
45694;SDS011;31408;45.468;9.124;2023-10-08T07:50:58;10.70;;;4.35;;
45694;SDS011;31408;45.468;9.124;2023-10-08T07:53:24;9.25;;;4.28;;
45694;SDS011;31408;45.468;9.124;2023-10-08T07:55:50;11.07;;;4.75;;
45694;SDS011;31408;45.468;9.124;2023-10-08T07:58:16;18.80;;;5.22;;
45694;SDS011;31408;45.468;9.124;2023-10-08T08:00:42;10.35;;;4.65;;
45694;SDS011;31408;45.468;9.124;2023-10-08T08:03:16;10.85;;;4.15;;
45694;SDS011;31408;45.468;9.124;2023-10-08T08:05:43;13.68;;;5.57;;
45694;SDS011;31408;45.468;9.124;2023-10-08T08:08:09;13.77;;;4.47;;
45694;SDS011;31408;45.468;9.124;2023-10-08T08:10:35;14.27;;;5.65;;
45694;SDS011;31408;45.468;9.124;2023-10-08T08:13:04;15.90;;;5.32;;
45694;SDS011;31408;45.468;9.124;2023-10-08T08:15:31;19.80;;;6.53;;
45694;SDS011;31408;45.468;9.124;2023-10-08T08:17:57;16.52;;;8.40;;
45694;SDS011;31408;45.468;9.124;2023-10-08T08:20:22;17.95;;;6.45;;
45694;SDS011;31408;45.468;9.124;2023-10-08T08:22:59;17.27;;;6.60;;
45694;SDS011;31408;45.468;9.124;2023-10-08T08:25:35;16.88;;;6.93;;
45694;SDS011;31408;45.468;9.124;2023-10-08T08:28:08;16.63;;;6.43;;
45694;SDS011;31408;45.468;9.124;2023-10-08T08:30:42;17.45;;;7.35;;
45694;SDS011;31408;45.468;9.124;2023-10-08T08:33:11;16.20;;;6.88;;
45694;SDS011;31408;45.468;9.124;2023-10-08T08:35:37;14.00;;;6.22;;
45694;SDS011;31408;45.468;9.124;2023-10-08T08:38:02;12.70;;;5.72;;
45694;SDS011;31408;45.468;9.124;2023-10-08T08:40:31;15.60;;;6.35;;
45694;SDS011;31408;45.468;9.124;2023-10-08T08:42:57;14.35;;;5.32;;
45694;SDS011;31408;45.468;9.124;2023-10-08T08:45:27;16.48;;;6.93;;
45694;SDS011;31408;45.468;9.124;2023-10-08T08:47:56;18.75;;;7.65;;
45694;SDS011;31408;45.468;9.124;2023-10-08T08:50:22;24.02;;;8.80;;
45694;SDS011;31408;45.468;9.124;2023-10-08T08:52:48;19.10;;;7.57;;
45694;SDS011;31408;45.468;9.124;2023-10-08T08:55:13;17.45;;;7.05;;
45694;SDS011;31408;45.468;9.124;2023-10-08T08:57:42;16.65;;;7.90;;
45694;SDS011;31408;45.468;9.124;2023-10-08T09:00:09;22.58;;;8.82;;
45694;SDS011;31408;45.468;9.124;2023-10-08T09:02:39;18.60;;;7.97;;
45694;SDS011;31408;45.468;9.124;2023-10-08T09:05:05;18.65;;;7.20;;
45694;SDS011;31408;45.468;9.124;2023-10-08T09:08:06;16.23;;;6.47;;
45694;SDS011;31408;45.468;9.124;2023-10-08T09:10:33;20.38;;;7.97;;
45694;SDS011;31408;45.468;9.124;2023-10-08T09:13:18;16.52;;;7.72;;
45694;SDS011;31408;45.468;9.124;2023-10-08T09:15:43;18.55;;;7.43;;
45694;SDS011;31408;45.468;9.124;2023-10-08T09:18:10;24.23;;;9.07;;
45694;SDS011;31408;45.468;9.124;2023-10-08T09:20:38;17.60;;;8.18;;
45694;SDS011;31408;45.468;9.124;2023-10-08T09:23:16;15.73;;;6.88;;
45694;SDS011;31408;45.468;9.124;2023-10-08T09:25:43;18.05;;;7.53;;
45694;SDS011;31408;45.468;9.124;2023-10-08T09:28:09;24.05;;;9.20;;
45694;SDS011;31408;45.468;9.124;2023-10-08T09:30:35;18.13;;;8.85;;
45694;SDS011;31408;45.468;9.124;2023-10-08T09:33:08;20.67;;;9.20;;
45694;SDS011;31408;45.468;9.124;2023-10-08T09:35:34;20.08;;;9.70;;
45694;SDS011;31408;45.468;9.124;2023-10-08T09:38:03;18.65;;;8.48;;
45694;SDS011;31408;45.468;9.124;2023-10-08T09:40:28;17.77;;;8.63;;
45694;SDS011;31408;45.468;9.124;2023-10-08T09:42:54;21.33;;;8.32;;
45694;SDS011;31408;45.468;9.124;2023-10-08T09:45:20;24.13;;;9.82;;
45694;SDS011;31408;45.468;9.124;2023-10-08T09:47:55;19.73;;;8.93;;
45694;SDS011;31408;45.468;9.124;2023-10-08T09:50:31;17.80;;;8.80;;
45694;SDS011;31408;45.468;9.124;2023-10-08T09:53:00;17.42;;;8.50;;
45694;SDS011;31408;45.468;9.124;2023-10-08T09:55:26;16.77;;;8.65;;
45694;SDS011;31408;45.468;9.124;2023-10-08T09:57:52;17.58;;;8.48;;
45694;SDS011;31408;45.468;9.124;2023-10-08T10:00:20;19.20;;;8.80;;
45694;SDS011;31408;45.468;9.124;2023-10-08T10:02:55;18.52;;;8.85;;
45694;SDS011;31408;45.468;9.124;2023-10-08T10:05:21;15.57;;;7.05;;
45694;SDS011;31408;45.468;9.124;2023-10-08T10:07:50;17.88;;;8.27;;
45694;SDS011;31408;45.468;9.124;2023-10-08T10:10:25;21.10;;;9.23;;
45694;SDS011;31408;45.468;9.124;2023-10-08T10:12:51;18.70;;;8.55;;
45694;SDS011;31408;45.468;9.124;2023-10-08T10:15:19;18.80;;;7.45;;
45694;SDS011;31408;45.468;9.124;2023-10-08T10:17:44;28.08;;;8.02;;
45694;SDS011;31408;45.468;9.124;2023-10-08T10:20:12;19.75;;;9.32;;
45694;SDS011;31408;45.468;9.124;2023-10-08T10:22:38;17.88;;;6.85;;
45694;SDS011;31408;45.468;9.124;2023-10-08T10:25:04;16.77;;;7.85;;
45694;SDS011;31408;45.468;9.124;2023-10-08T10:30:29;19.70;;;8.55;;
45694;SDS011;31408;45.468;9.124;2023-10-08T10:32:54;14.85;;;6.65;;
45694;SDS011;31408;45.468;9.124;2023-10-08T10:35:25;19.00;;;7.13;;
45694;SDS011;31408;45.468;9.124;2023-10-08T10:37:52;17.45;;;7.47;;
45694;SDS011;31408;45.468;9.124;2023-10-08T10:40:23;13.75;;;5.45;;
45694;SDS011;31408;45.468;9.124;2023-10-08T10:43:09;14.77;;;5.53;;
45694;SDS011;31408;45.468;9.124;2023-10-08T10:45:41;13.98;;;5.93;;
45694;SDS011;31408;45.468;9.124;2023-10-08T10:48:09;17.90;;;7.35;;
45694;SDS011;31408;45.468;9.124;2023-10-08T10:50:57;18.77;;;7.85;;
45694;SDS011;31408;45.468;9.124;2023-10-08T10:53:36;22.75;;;7.10;;
45694;SDS011;31408;45.468;9.124;2023-10-08T10:56:17;13.85;;;6.47;;
45694;SDS011;31408;45.468;9.124;2023-10-08T10:58:58;24.35;;;6.90;;
45694;SDS011;31408;45.468;9.124;2023-10-08T11:01:26;16.83;;;7.80;;
45694;SDS011;31408;45.468;9.124;2023-10-08T11:03:55;16.92;;;7.22;;
45694;SDS011;31408;45.468;9.124;2023-10-08T11:06:22;16.17;;;6.15;;
45694;SDS011;31408;45.468;9.124;2023-10-08T11:08:52;17.33;;;7.65;;
45694;SDS011;31408;45.468;9.124;2023-10-08T11:11:18;14.73;;;6.25;;
45694;SDS011;31408;45.468;9.124;2023-10-08T11:13:44;11.70;;;5.78;;
45694;SDS011;31408;45.468;9.124;2023-10-08T11:16:16;13.55;;;6.25;;
45694;SDS011;31408;45.468;9.124;2023-10-08T11:18:44;16.80;;;6.90;;
45694;SDS011;31408;45.468;9.124;2023-10-08T11:21:15;13.82;;;6.38;;
45694;SDS011;31408;45.468;9.124;2023-10-08T11:23:45;18.20;;;7.53;;
45694;SDS011;31408;45.468;9.124;2023-10-08T11:26:17;21.90;;;7.75;;
45694;SDS011;31408;45.468;9.124;2023-10-08T11:28:44;12.77;;;6.32;;
45694;SDS011;31408;45.468;9.124;2023-10-08T11:31:17;21.00;;;7.72;;
45694;SDS011;31408;45.468;9.124;2023-10-08T11:33:45;16.48;;;6.82;;
45694;SDS011;31408;45.468;9.124;2023-10-08T11:36:19;13.23;;;6.32;;
45694;SDS011;31408;45.468;9.124;2023-10-08T11:38:45;18.83;;;6.88;;
45694;SDS011;31408;45.468;9.124;2023-10-08T11:41:15;18.75;;;7.07;;
45694;SDS011;31408;45.468;9.124;2023-10-08T11:43:50;15.60;;;6.25;;
45694;SDS011;31408;45.468;9.124;2023-10-08T11:48:58;15.40;;;5.00;;
45694;SDS011;31408;45.468;9.124;2023-10-08T11:51:29;16.63;;;5.72;;
45694;SDS011;31408;45.468;9.124;2023-10-08T11:53:54;16.77;;;7.00;;
45694;SDS011;31408;45.468;9.124;2023-10-08T11:56:19;15.35;;;5.78;;
45694;SDS011;31408;45.468;9.124;2023-10-08T11:58:48;13.05;;;5.45;;
45694;SDS011;31408;45.468;9.124;2023-10-08T12:01:13;12.50;;;5.30;;
45694;SDS011;31408;45.468;9.124;2023-10-08T12:03:43;18.33;;;5.55;;
45694;SDS011;31408;45.468;9.124;2023-10-08T12:06:09;15.30;;;6.05;;
45694;SDS011;31408;45.468;9.124;2023-10-08T12:08:36;18.25;;;5.97;;
45694;SDS011;31408;45.468;9.124;2023-10-08T12:11:04;13.65;;;5.72;;
45694;SDS011;31408;45.468;9.124;2023-10-08T12:13:37;12.18;;;5.85;;
45694;SDS011;31408;45.468;9.124;2023-10-08T12:16:02;13.68;;;5.80;;
45694;SDS011;31408;45.468;9.124;2023-10-08T12:18:31;12.50;;;5.72;;
45694;SDS011;31408;45.468;9.124;2023-10-08T12:20:59;15.45;;;5.30;;
45694;SDS011;31408;45.468;9.124;2023-10-08T12:23:25;16.13;;;6.18;;
45694;SDS011;31408;45.468;9.124;2023-10-08T12:25:51;15.93;;;5.95;;
45694;SDS011;31408;45.468;9.124;2023-10-08T12:28:17;12.13;;;4.95;;
45694;SDS011;31408;45.468;9.124;2023-10-08T12:30:44;16.67;;;5.55;;
45694;SDS011;31408;45.468;9.124;2023-10-08T12:33:10;11.52;;;4.85;;
45694;SDS011;31408;45.468;9.124;2023-10-08T12:35:38;8.80;;;3.88;;
45694;SDS011;31408;45.468;9.124;2023-10-08T12:38:04;13.15;;;4.85;;
45694;SDS011;31408;45.468;9.124;2023-10-08T12:40:30;10.88;;;4.63;;
45694;SDS011;31408;45.468;9.124;2023-10-08T12:43:08;18.75;;;6.00;;
45694;SDS011;31408;45.468;9.124;2023-10-08T12:45:33;10.95;;;4.28;;
45694;SDS011;31408;45.468;9.124;2023-10-08T12:47:58;16.40;;;6.03;;
45694;SDS011;31408;45.468;9.124;2023-10-08T12:50:24;14.13;;;4.53;;
45694;SDS011;31408;45.468;9.124;2023-10-08T12:53:08;11.50;;;4.43;;
45694;SDS011;31408;45.468;9.124;2023-10-08T12:55:33;10.88;;;4.80;;
45694;SDS011;31408;45.468;9.124;2023-10-08T12:58:04;11.73;;;4.20;;
45694;SDS011;31408;45.468;9.124;2023-10-08T13:00:35;9.88;;;3.75;;
45694;SDS011;31408;45.468;9.124;2023-10-08T13:03:03;10.60;;;3.55;;
45694;SDS011;31408;45.468;9.124;2023-10-08T13:05:30;11.27;;;4.28;;
45694;SDS011;31408;45.468;9.124;2023-10-08T13:07:56;13.25;;;3.80;;
45694;SDS011;31408;45.468;9.124;2023-10-08T13:10:22;10.00;;;3.45;;
45694;SDS011;31408;45.468;9.124;2023-10-08T13:12:48;9.25;;;2.75;;
45694;SDS011;31408;45.468;9.124;2023-10-08T13:15:14;10.45;;;3.47;;
45694;SDS011;31408;45.468;9.124;2023-10-08T13:17:39;13.43;;;3.42;;
45694;SDS011;31408;45.468;9.124;2023-10-08T13:20:09;9.70;;;3.08;;
45694;SDS011;31408;45.468;9.124;2023-10-08T13:22:37;14.55;;;4.38;;
45694;SDS011;31408;45.468;9.124;2023-10-08T13:25:02;14.13;;;4.20;;
45694;SDS011;31408;45.468;9.124;2023-10-08T13:27:30;16.70;;;3.72;;
45694;SDS011;31408;45.468;9.124;2023-10-08T13:29:55;8.77;;;3.47;;
45694;SDS011;31408;45.468;9.124;2023-10-08T13:32:20;8.35;;;3.85;;
45694;SDS011;31408;45.468;9.124;2023-10-08T13:34:46;10.35;;;3.33;;
45694;SDS011;31408;45.468;9.124;2023-10-08T13:37:11;8.60;;;2.95;;
45694;SDS011;31408;45.468;9.124;2023-10-08T13:39:36;11.93;;;3.72;;
45694;SDS011;31408;45.468;9.124;2023-10-08T13:42:05;12.38;;;3.35;;
45694;SDS011;31408;45.468;9.124;2023-10-08T13:44:30;13.18;;;3.13;;
45694;SDS011;31408;45.468;9.124;2023-10-08T13:46:56;13.50;;;3.83;;
45694;SDS011;31408;45.468;9.124;2023-10-08T13:49:23;12.07;;;2.90;;
45694;SDS011;31408;45.468;9.124;2023-10-08T13:51:51;7.93;;;2.78;;
45694;SDS011;31408;45.468;9.124;2023-10-08T13:54:24;8.63;;;2.67;;
45694;SDS011;31408;45.468;9.124;2023-10-08T13:56:57;14.07;;;4.32;;
45694;SDS011;31408;45.468;9.124;2023-10-08T13:59:23;10.73;;;3.65;;
45694;SDS011;31408;45.468;9.124;2023-10-08T14:01:49;12.55;;;3.67;;
45694;SDS011;31408;45.468;9.124;2023-10-08T14:04:19;8.63;;;3.60;;
45694;SDS011;31408;45.468;9.124;2023-10-08T14:06:45;12.10;;;3.05;;
45694;SDS011;31408;45.468;9.124;2023-10-08T14:09:17;9.55;;;2.88;;
45694;SDS011;31408;45.468;9.124;2023-10-08T14:11:47;8.55;;;2.80;;
45694;SDS011;31408;45.468;9.124;2023-10-08T14:14:12;11.73;;;3.20;;
45694;SDS011;31408;45.468;9.124;2023-10-08T14:16:41;10.02;;;3.35;;
45694;SDS011;31408;45.468;9.124;2023-10-08T14:19:12;7.85;;;2.60;;
45694;SDS011;31408;45.468;9.124;2023-10-08T14:21:41;8.18;;;3.40;;
45694;SDS011;31408;45.468;9.124;2023-10-08T14:24:20;9.45;;;3.38;;
45694;SDS011;31408;45.468;9.124;2023-10-08T14:26:45;11.50;;;4.07;;
45694;SDS011;31408;45.468;9.124;2023-10-08T14:29:17;12.65;;;4.93;;
45694;SDS011;31408;45.468;9.124;2023-10-08T14:31:42;10.88;;;2.72;;
45694;SDS011;31408;45.468;9.124;2023-10-08T14:34:09;12.43;;;3.75;;
45694;SDS011;31408;45.468;9.124;2023-10-08T14:36:40;8.70;;;3.50;;
45694;SDS011;31408;45.468;9.124;2023-10-08T14:39:25;8.80;;;3.63;;
45694;SDS011;31408;45.468;9.124;2023-10-08T14:42:09;11.25;;;3.50;;
45694;SDS011;31408;45.468;9.124;2023-10-08T14:44:53;9.30;;;3.38;;
45694;SDS011;31408;45.468;9.124;2023-10-08T14:47:19;5.60;;;2.50;;
45694;SDS011;31408;45.468;9.124;2023-10-08T14:49:44;9.18;;;3.58;;
45694;SDS011;31408;45.468;9.124;2023-10-08T14:52:11;6.45;;;3.42;;
45694;SDS011;31408;45.468;9.124;2023-10-08T14:54:36;10.10;;;3.67;;
45694;SDS011;31408;45.468;9.124;2023-10-08T14:57:03;11.23;;;3.40;;
45694;SDS011;31408;45.468;9.124;2023-10-08T14:59:31;12.05;;;4.70;;